Time;durP1;ratioP1;P1;durP2;ratioP2;P2;SDS_P1;SDS_P2;PMS_P1;PMS_P2;Temp;Humidity;BMP_temperature;BMP_pressure;BME280_temperature;BME280_humidity;BME280_pressure;Samples;Min_cycle;Max_cycle;Signal;HPM_P1;HPM_P2
2023/10/23 00:01:14;;;;;;;15.40;6.35;;;12.30;99.90;;;;;;4262640;27;20381;-55
2023/10/23 00:03:16;;;;;;;18.20;6.88;;;12.30;99.90;;;;;;4269310;27;20103;-55
2023/10/23 00:05:19;;;;;;;14.88;6.28;;;12.20;99.90;;;;;;4258689;27;20043;-56
2023/10/23 00:07:22;;;;;;;24.33;7.60;;;12.30;99.90;;;;;;4265885;27;20117;-54
2023/10/23 00:09:24;;;;;;;20.63;8.38;;;12.20;99.90;;;;;;4266790;27;20115;-64
2023/10/23 00:11:28;;;;;;;16.52;6.82;;;12.20;99.90;;;;;;4256512;27;20083;-54
2023/10/23 00:13:30;;;;;;;14.13;7.18;;;12.20;99.90;;;;;;4267182;27;20133;-55
2023/10/23 00:15:33;;;;;;;23.50;7.63;;;12.10;99.90;;;;;;4257340;27;20067;-55
2023/10/23 00:17:36;;;;;;;19.73;7.55;;;12.10;99.90;;;;;;4262780;27;20045;-54
2023/10/23 00:19:38;;;;;;;18.52;7.05;;;12.10;99.90;;;;;;4263642;27;20074;-54
2023/10/23 00:21:40;;;;;;;18.45;7.25;;;12.10;99.90;;;;;;4242355;27;20090;-56
2023/10/23 00:23:44;;;;;;;18.92;7.97;;;12.00;99.90;;;;;;4257880;27;20042;-54
2023/10/23 00:25:47;;;;;;;17.15;6.75;;;12.00;99.90;;;;;;4257259;27;20619;-54
2023/10/23 00:27:50;;;;;;;18.55;7.82;;;12.00;99.90;;;;;;4266466;27;20475;-55
2023/10/23 00:29:52;;;;;;;16.65;6.60;;;11.90;99.90;;;;;;4264271;27;20475;-55
2023/10/23 00:31:54;;;;;;;14.38;6.45;;;11.90;99.90;;;;;;4262436;27;20035;-55
2023/10/23 00:33:56;;;;;;;18.17;6.75;;;12.00;99.90;;;;;;4266443;27;20117;-55
2023/10/23 00:35:58;;;;;;;18.27;7.53;;;12.00;99.90;;;;;;4259089;27;20047;-55
2023/10/23 00:38:00;;;;;;;20.13;7.03;;;12.00;99.90;;;;;;4260077;27;20076;-55
2023/10/23 00:40:05;;;;;;;21.73;7.70;;;12.00;99.90;;;;;;4265546;27;20054;-55
2023/10/23 00:42:07;;;;;;;14.02;6.85;;;12.00;99.90;;;;;;4260392;27;20564;-56
2023/10/23 00:44:09;;;;;;;15.13;6.82;;;12.00;99.90;;;;;;4248921;27;20051;-55
2023/10/23 00:46:15;;;;;;;17.85;7.57;;;11.90;99.90;;;;;;4254166;27;20038;-55
2023/10/23 00:48:20;;;;;;;22.70;7.53;;;12.00;99.90;;;;;;4255525;27;20043;-55
2023/10/23 00:50:22;;;;;;;;;;;12.00;99.90;;;;;;4255691;27;20039;-55
2023/10/23 00:52:25;;;;;;;20.05;6.88;;;12.00;99.90;;;;;;4261915;27;19918;-55
2023/10/23 00:54:28;;;;;;;25.17;8.68;;;11.90;99.90;;;;;;4250823;27;20043;-55
2023/10/23 00:56:32;;;;;;;17.42;6.57;;;11.90;99.90;;;;;;4254971;27;20188;-56
2023/10/23 00:58:38;;;;;;;23.25;7.53;;;12.00;99.90;;;;;;4255747;27;20043;-55
2023/10/23 01:00:41;;;;;;;20.27;7.05;;;12.00;99.90;;;;;;4230693;27;20110;-55
2023/10/23 01:02:43;;;;;;;28.52;8.52;;;12.00;99.90;;;;;;4261939;27;20038;-55
2023/10/23 01:04:47;;;;;;;21.25;7.35;;;11.80;99.90;;;;;;4247567;27;20089;-55
2023/10/23 01:06:50;;;;;;;20.23;6.57;;;11.80;99.90;;;;;;4260270;27;20134;-55
2023/10/23 01:08:52;;;;;;;20.50;6.88;;;11.80;99.90;;;;;;4257925;27;20173;-55
2023/10/23 01:10:55;;;;;;;19.88;7.20;;;11.80;99.90;;;;;;4265316;27;20070;-54
2023/10/23 01:12:59;;;;;;;23.05;6.93;;;11.80;99.90;;;;;;4251996;27;20396;-54
2023/10/23 01:15:01;;;;;;;17.60;6.50;;;11.80;99.90;;;;;;4265534;27;20050;-55
2023/10/23 01:17:03;;;;;;;19.83;6.35;;;11.80;99.90;;;;;;4261034;27;20047;-54
2023/10/23 01:19:05;;;;;;;16.20;5.80;;;11.80;99.90;;;;;;4265565;27;20049;-54
2023/10/23 01:21:08;;;;;;;19.15;6.30;;;11.80;99.90;;;;;;4265628;27;20117;-54
2023/10/23 01:23:10;;;;;;;16.58;6.18;;;11.80;99.90;;;;;;4256736;27;20039;-55
2023/10/23 01:25:14;;;;;;;18.60;6.95;;;11.80;99.90;;;;;;4265406;27;20043;-55
2023/10/23 01:27:16;;;;;;;15.88;6.25;;;11.80;99.90;;;;;;4260633;27;20378;-55
2023/10/23 01:29:18;;;;;;;16.73;5.53;;;11.80;99.90;;;;;;4258424;27;20047;-55
2023/10/23 01:31:20;;;;;;;18.35;5.75;;;11.70;99.90;;;;;;4254875;27;20051;-55
2023/10/23 01:33:25;;;;;;;18.48;5.55;;;11.70;99.90;;;;;;4261125;27;20546;-55
2023/10/23 01:35:27;;;;;;;18.52;6.53;;;11.70;99.90;;;;;;4249392;27;20058;-58
2023/10/23 01:37:30;;;;;;;21.38;6.57;;;11.80;99.90;;;;;;4250054;27;20047;-54
2023/10/23 01:39:32;;;;;;;17.67;5.80;;;11.80;99.90;;;;;;4258891;27;20039;-56
2023/10/23 01:41:35;;;;;;;18.13;5.90;;;11.70;99.90;;;;;;4247567;27;20047;-54
2023/10/23 01:43:38;;;;;;;17.20;5.50;;;11.60;99.90;;;;;;4249396;27;20589;-56
2023/10/23 01:45:40;;;;;;;16.38;5.22;;;11.60;99.90;;;;;;4262583;27;20053;-55
2023/10/23 01:47:42;;;;;;;17.23;6.05;;;11.60;99.90;;;;;;4263505;27;20406;-55
2023/10/23 01:49:44;;;;;;;13.88;4.93;;;11.70;99.90;;;;;;4253204;27;20066;-56
2023/10/23 01:51:46;;;;;;;15.02;5.88;;;11.60;99.90;;;;;;4261903;27;20050;-55
2023/10/23 01:53:48;;;;;;;15.93;5.22;;;11.60;99.90;;;;;;4260541;27;20377;-57
2023/10/23 01:55:50;;;;;;;15.27;5.53;;;11.60;99.90;;;;;;4251492;27;20043;-55
2023/10/23 01:57:57;;;;;;;15.55;5.20;;;11.50;99.90;;;;;;4249166;27;20046;-55
2023/10/23 02:00:04;;;;;;;12.85;4.90;;;11.50;99.90;;;;;;4259159;27;20039;-55
2023/10/23 02:02:06;;;;;;;19.65;4.95;;;11.50;99.90;;;;;;4255121;27;20066;-55
2023/10/23 02:04:08;;;;;;;18.20;5.53;;;11.50;99.90;;;;;;4260666;27;20252;-55
2023/10/23 02:06:11;;;;;;;11.07;4.18;;;11.50;99.90;;;;;;4251313;27;20050;-55
2023/10/23 02:08:13;;;;;;;14.05;5.35;;;11.50;99.90;;;;;;4249103;27;20047;-54
2023/10/23 02:10:15;;;;;;;9.63;4.45;;;11.50;99.90;;;;;;4259066;27;20063;-56
2023/10/23 02:12:17;;;;;;;16.63;4.97;;;11.50;99.90;;;;;;4247320;27;20043;-55
2023/10/23 02:14:20;;;;;;;14.98;4.97;;;11.50;99.90;;;;;;4254556;27;20046;-56
2023/10/23 02:16:22;;;;;;;10.65;4.38;;;11.50;99.90;;;;;;4252370;27;20091;-55
2023/10/23 02:18:24;;;;;;;13.23;4.93;;;11.50;99.90;;;;;;4259164;27;20046;-56
2023/10/23 02:20:27;;;;;;;13.63;4.30;;;11.50;99.90;;;;;;4258930;27;20049;-55
2023/10/23 02:22:29;;;;;;;15.73;4.68;;;11.50;99.90;;;;;;4247160;27;20143;-55
2023/10/23 02:24:31;;;;;;;10.15;4.07;;;11.50;99.90;;;;;;4260218;27;20088;-56
2023/10/23 02:26:33;;;;;;;17.02;4.97;;;11.50;99.90;;;;;;4260902;27;20051;-55
2023/10/23 02:28:35;;;;;;;12.15;4.60;;;11.40;99.90;;;;;;4263941;27;20042;-55
2023/10/23 02:30:39;;;;;;;14.20;4.78;;;11.50;99.90;;;;;;4241153;27;20126;-56
2023/10/23 02:32:41;;;;;;;13.32;4.40;;;11.50;99.90;;;;;;4264759;27;20038;-55
2023/10/23 02:34:43;;;;;;;21.20;5.22;;;11.50;99.90;;;;;;4259999;27;20042;-55
2023/10/23 02:36:46;;;;;;;18.55;4.95;;;11.50;99.90;;;;;;4236663;27;20122;-55
2023/10/23 02:38:48;;;;;;;19.35;5.57;;;11.50;99.90;;;;;;4247357;27;20103;-56
2023/10/23 02:40:51;;;;;;;12.48;4.82;;;11.40;99.90;;;;;;4259937;27;20080;-55
2023/10/23 02:42:53;;;;;;;14.35;4.47;;;11.40;99.90;;;;;;4264949;27;20419;-55
2023/10/23 02:44:55;;;;;;;15.05;4.57;;;11.30;99.90;;;;;;4260238;27;20047;-54
2023/10/23 02:46:59;;;;;;;13.75;4.63;;;11.20;99.90;;;;;;4256136;27;20453;-55
2023/10/23 02:49:02;;;;;;;18.02;5.43;;;11.20;99.90;;;;;;4228945;28;20405;-55
2023/10/23 02:51:04;;;;;;;14.70;4.85;;;11.20;99.90;;;;;;4259760;27;20043;-55
2023/10/23 02:53:07;;;;;;;16.90;4.18;;;11.10;99.90;;;;;;4264367;27;20617;-56
2023/10/23 02:55:09;;;;;;;15.52;4.88;;;11.00;99.90;;;;;;4261010;27;20046;-54
2023/10/23 02:57:12;;;;;;;10.90;4.38;;;11.00;99.90;;;;;;4254480;27;20054;-55
2023/10/23 02:59:14;;;;;;;12.73;4.25;;;11.00;99.90;;;;;;4264311;27;20137;-55
2023/10/23 03:01:17;;;;;;;12.45;4.20;;;10.90;99.90;;;;;;4253791;27;20039;-55
2023/10/23 03:03:21;;;;;;;16.10;4.45;;;10.90;99.90;;;;;;4263921;27;20042;-55
2023/10/23 03:05:23;;;;;;;14.95;4.78;;;10.90;99.90;;;;;;4262254;27;20038;-55
2023/10/23 03:07:25;;;;;;;12.82;4.55;;;10.90;99.90;;;;;;4253055;27;20038;-55
2023/10/23 03:09:27;;;;;;;14.35;5.03;;;10.90;99.90;;;;;;4263966;27;20382;-55
2023/10/23 03:11:29;;;;;;;13.90;4.15;;;10.90;99.90;;;;;;4254121;27;20447;-55
2023/10/23 03:13:32;;;;;;;14.30;4.03;;;11.00;99.90;;;;;;4242938;27;20065;-54
2023/10/23 03:15:34;;;;;;;12.73;4.38;;;11.00;99.90;;;;;;4262221;27;20062;-55
2023/10/23 03:17:38;;;;;;;19.13;4.30;;;10.90;99.90;;;;;;4253643;27;20138;-56
2023/10/23 03:19:42;;;;;;;14.73;3.90;;;10.90;99.90;;;;;;4264080;27;20054;-55
2023/10/23 03:21:44;;;;;;;14.70;4.00;;;10.90;99.90;;;;;;4255011;27;20043;-54
2023/10/23 03:23:46;;;;;;;18.75;4.35;;;10.90;99.90;;;;;;4249627;27;20078;-55
2023/10/23 03:25:48;;;;;;;15.10;4.30;;;10.90;99.90;;;;;;4266515;27;20118;-55
2023/10/23 03:27:50;;;;;;;15.68;4.20;;;10.90;99.90;;;;;;4255546;27;20067;-54
2023/10/23 03:29:52;;;;;;;14.23;4.53;;;10.80;99.90;;;;;;4267398;27;20483;-55
2023/10/23 03:31:54;;;;;;;17.52;4.47;;;10.80;99.90;;;;;;4260395;27;20078;-54
2023/10/23 03:33:56;;;;;;;16.77;4.68;;;10.90;99.90;;;;;;4262067;27;20118;-55
2023/10/23 03:36:00;;;;;;;16.13;3.95;;;10.90;99.90;;;;;;4247161;27;20047;-55
2023/10/23 03:38:02;;;;;;;11.70;3.70;;;10.90;99.90;;;;;;4255382;27;20145;-55
2023/10/23 03:40:05;;;;;;;13.38;4.30;;;10.80;99.90;;;;;;4267203;27;20047;-56
2023/10/23 03:42:08;;;;;;;12.70;3.80;;;10.80;99.90;;;;;;4260863;27;20400;-55
2023/10/23 03:44:10;;;;;;;13.73;4.00;;;10.80;99.90;;;;;;4260702;27;20130;-55
2023/10/23 03:46:12;;;;;;;19.20;4.53;;;10.80;99.90;;;;;;4266019;27;20073;-55
2023/10/23 03:48:14;;;;;;;14.77;4.05;;;10.80;99.90;;;;;;4254817;27;20039;-55
2023/10/23 03:50:16;;;;;;;13.50;5.00;;;10.80;99.90;;;;;;4266698;27;20039;-55
2023/10/23 03:52:20;;;;;;;17.35;4.22;;;10.70;99.90;;;;;;4264845;27;20061;-55
2023/10/23 03:54:22;;;;;;;12.00;4.03;;;10.60;99.90;;;;;;4257436;27;20120;-55
2023/10/23 03:56:24;;;;;;;16.17;3.85;;;10.70;99.90;;;;;;4249844;27;20047;-55
2023/10/23 03:58:26;;;;;;;15.80;4.28;;;10.60;99.90;;;;;;4262459;27;20137;-55
2023/10/23 04:00:29;;;;;;;14.43;3.47;;;10.60;99.90;;;;;;4250251;27;20051;-56
2023/10/23 04:02:31;;;;;;;11.73;3.70;;;10.70;99.90;;;;;;4257980;27;20057;-56
2023/10/23 04:04:33;;;;;;;15.02;4.20;;;10.60;99.90;;;;;;4259976;27;20160;-55
2023/10/23 04:06:38;;;;;;;15.35;4.10;;;10.60;99.90;;;;;;4251305;27;20100;-55
2023/10/23 04:08:42;;;;;;;18.75;4.80;;;10.60;99.90;;;;;;4262765;27;20535;-56
2023/10/23 04:10:48;;;;;;;15.23;3.95;;;10.60;99.90;;;;;;4249882;27;20469;-55
2023/10/23 04:12:50;;;;;;;14.50;4.00;;;10.60;99.90;;;;;;4252812;27;20399;-55
2023/10/23 04:14:52;;;;;;;14.45;3.38;;;10.60;99.90;;;;;;4258487;27;20043;-56
2023/10/23 04:16:54;;;;;;;15.63;3.63;;;10.50;99.90;;;;;;4249621;27;20071;-56
2023/10/23 04:18:56;;;;;;;17.70;3.97;;;10.40;99.90;;;;;;4261900;27;20054;-55
2023/10/23 04:21:02;;;;;;;12.57;3.58;;;10.40;99.90;;;;;;4250356;27;20043;-56
2023/10/23 04:23:04;;;;;;;14.07;4.50;;;10.40;99.90;;;;;;4253699;27;20091;-55
2023/10/23 04:25:08;;;;;;;11.13;3.72;;;10.50;99.90;;;;;;4264875;27;20043;-56
2023/10/23 04:27:10;;;;;;;14.05;4.30;;;10.50;99.90;;;;;;4263349;27;20126;-53
2023/10/23 04:29:12;;;;;;;13.27;4.15;;;10.60;99.90;;;;;;4261820;27;20061;-54
2023/10/23 04:31:15;;;;;;;19.48;4.07;;;10.60;99.90;;;;;;4256308;27;20054;-55
2023/10/23 04:33:21;;;;;;;10.00;3.50;;;10.60;99.90;;;;;;4261613;27;20494;-55
2023/10/23 04:35:23;;;;;;;13.23;4.07;;;10.60;99.90;;;;;;4258928;27;20112;-55
2023/10/23 04:37:26;;;;;;;21.73;4.07;;;10.70;99.90;;;;;;4249449;27;20054;-55
2023/10/23 04:39:28;;;;;;;11.38;3.78;;;10.60;99.90;;;;;;4259028;27;20042;-55
2023/10/23 04:41:31;;;;;;;11.18;3.80;;;10.60;99.90;;;;;;4251449;27;20058;-62
2023/10/23 04:43:34;;;;;;;15.18;3.63;;;10.70;99.90;;;;;;4250343;27;20061;-55
2023/10/23 04:45:37;;;;;;;14.95;3.40;;;10.70;99.90;;;;;;4260547;27;20537;-64
2023/10/23 04:47:39;;;;;;;16.75;3.65;;;10.80;99.90;;;;;;4248799;27;20476;-55
2023/10/23 04:49:41;;;;;;;11.65;3.08;;;10.70;99.90;;;;;;4257472;27;20066;-55
2023/10/23 04:51:43;;;;;;;14.48;4.15;;;10.80;99.90;;;;;;4265484;27;20053;-55
2023/10/23 04:53:45;;;;;;;12.27;3.65;;;10.80;99.90;;;;;;4263272;27;20121;-55
2023/10/23 04:55:47;;;;;;;15.82;4.00;;;10.80;99.90;;;;;;4260348;27;20063;-54
2023/10/23 04:57:51;;;;;;;8.52;3.30;;;10.80;99.90;;;;;;4248644;27;20043;-55
2023/10/23 04:59:53;;;;;;;13.52;3.72;;;10.90;99.90;;;;;;4255945;27;20054;-55
2023/10/23 05:01:55;;;;;;;11.32;3.38;;;10.90;99.90;;;;;;4259975;27;20043;-55
2023/10/23 05:03:57;;;;;;;12.40;3.42;;;10.90;99.90;;;;;;4264586;27;20099;-55
2023/10/23 05:05:59;;;;;;;16.83;3.60;;;10.90;99.90;;;;;;4260117;27;20404;-55
2023/10/23 05:08:03;;;;;;;14.82;4.07;;;10.90;99.90;;;;;;4248954;27;20057;-55
2023/10/23 05:10:07;;;;;;;10.73;2.75;;;10.90;99.90;;;;;;4255093;27;20373;-55
2023/10/23 05:12:09;;;;;;;11.77;2.83;;;11.00;99.90;;;;;;4254365;27;20058;-56
2023/10/23 05:14:12;;;;;;;7.47;2.92;;;11.00;99.90;;;;;;4249481;27;20122;-55
2023/10/23 05:16:14;;;;;;;15.25;3.25;;;10.90;99.90;;;;;;4253663;27;20096;-54
2023/10/23 05:18:17;;;;;;;12.30;3.00;;;10.90;99.90;;;;;;4265296;27;20096;-55
2023/10/23 05:20:19;;;;;;;14.88;3.60;;;11.00;99.90;;;;;;4260522;27;20094;-53
2023/10/23 05:22:21;;;;;;;8.85;3.20;;;11.00;99.90;;;;;;4255559;27;20065;-55
2023/10/23 05:24:23;;;;;;;12.48;4.22;;;11.00;99.90;;;;;;4243990;27;20043;-55
2023/10/23 05:26:26;;;;;;;15.20;4.22;;;11.00;99.90;;;;;;4263669;27;20046;-54
2023/10/23 05:28:28;;;;;;;10.75;3.40;;;11.00;99.90;;;;;;4265038;27;20053;-55
2023/10/23 05:30:31;;;;;;;11.85;3.45;;;11.00;99.90;;;;;;4261086;27;21083;-55
2023/10/23 05:32:37;;;;;;;11.25;3.08;;;11.00;99.90;;;;;;4264626;27;20042;-55
2023/10/23 05:34:43;;;;;;;14.45;3.83;;;11.00;99.90;;;;;;4265396;27;20047;-55
2023/10/23 05:36:46;;;;;;;15.50;4.25;;;10.90;99.90;;;;;;4252505;27;20066;-55
2023/10/23 05:38:48;;;;;;;15.00;3.75;;;10.90;99.90;;;;;;4264880;27;20046;-55
2023/10/23 05:40:56;;;;;;;17.70;4.00;;;11.00;99.90;;;;;;4260863;27;20197;-55
2023/10/23 05:42:59;;;;;;;20.13;4.00;;;10.90;99.90;;;;;;4257325;27;20143;-56
2023/10/23 05:45:02;;;;;;;15.90;3.83;;;10.90;99.90;;;;;;4265128;27;20066;-56
2023/10/23 05:47:06;;;;;;;18.83;4.47;;;10.90;99.90;;;;;;4260133;27;20051;-55
2023/10/23 05:49:08;;;;;;;8.48;3.33;;;10.80;99.90;;;;;;4246832;27;20047;-56
2023/10/23 05:51:10;;;;;;;17.30;4.07;;;10.80;99.90;;;;;;4255551;27;20473;-55
2023/10/23 05:53:13;;;;;;;20.90;4.35;;;10.90;99.90;;;;;;4237775;27;20193;-56
2023/10/23 05:55:15;;;;;;;16.35;3.72;;;10.90;99.90;;;;;;4247841;27;20107;-55
2023/10/23 05:57:17;;;;;;;12.27;3.33;;;10.90;99.90;;;;;;4259707;27;20066;-56
2023/10/23 05:59:19;;;;;;;13.43;4.05;;;10.90;99.90;;;;;;4248434;27;20438;-55
2023/10/23 06:01:22;;;;;;;9.65;3.83;;;10.90;99.90;;;;;;4249139;27;20039;-55
2023/10/23 06:03:25;;;;;;;19.70;3.30;;;10.90;99.90;;;;;;4254395;27;20050;-55
2023/10/23 06:05:27;;;;;;;15.38;3.83;;;11.00;99.90;;;;;;4265036;27;20085;-55
2023/10/23 06:07:29;;;;;;;10.60;3.22;;;11.00;99.90;;;;;;4253311;27;20043;-56
2023/10/23 06:09:32;;;;;;;13.77;3.15;;;11.00;99.90;;;;;;4244418;27;20111;-55
2023/10/23 06:11:34;;;;;;;15.90;4.07;;;11.00;99.90;;;;;;4262869;27;20058;-55
2023/10/23 06:13:37;;;;;;;13.40;3.45;;;11.00;99.90;;;;;;4253419;27;20047;-55
2023/10/23 06:15:39;;;;;;;20.13;3.80;;;11.00;99.90;;;;;;4265037;27;20092;-55
2023/10/23 06:17:41;;;;;;;14.75;3.53;;;11.10;99.90;;;;;;4261845;27;20369;-55
2023/10/23 06:19:45;;;;;;;12.13;2.95;;;11.10;99.90;;;;;;4246091;27;20058;-56
2023/10/23 06:21:47;;;;;;;10.90;3.53;;;11.10;99.90;;;;;;4262906;27;20118;-55
2023/10/23 06:23:49;;;;;;;15.43;2.88;;;11.10;99.90;;;;;;4257514;27;20046;-56
2023/10/23 06:25:55;;;;;;;18.92;4.05;;;11.10;99.90;;;;;;4264629;27;20376;-55
2023/10/23 06:27:57;;;;;;;19.20;3.90;;;11.10;99.90;;;;;;4259969;27;20150;-55
2023/10/23 06:29:59;;;;;;;12.80;3.00;;;11.10;99.90;;;;;;4251859;27;20395;-63
2023/10/23 06:32:02;;;;;;;10.48;3.30;;;11.10;99.90;;;;;;4256507;27;20045;-55
2023/10/23 06:34:05;;;;;;;11.32;3.08;;;11.10;99.90;;;;;;4258918;27;20408;-55
2023/10/23 06:36:09;;;;;;;17.05;3.70;;;11.10;99.90;;;;;;4247635;27;20126;-55
2023/10/23 06:38:11;;;;;;;9.47;2.97;;;11.00;99.90;;;;;;4255196;27;20149;-55
2023/10/23 06:40:13;;;;;;;13.90;3.40;;;11.10;99.90;;;;;;4252041;27;20534;-56
2023/10/23 06:42:15;;;;;;;16.23;4.00;;;11.00;99.90;;;;;;4248449;27;20063;-55
2023/10/23 06:44:19;;;;;;;21.50;3.75;;;11.10;99.90;;;;;;4259022;27;20089;-55
2023/10/23 06:46:21;;;;;;;15.63;3.97;;;11.00;99.90;;;;;;4247121;28;20096;-56
2023/10/23 06:48:23;;;;;;;11.45;3.40;;;11.10;99.90;;;;;;4254319;27;20047;-55
2023/10/23 06:50:25;;;;;;;18.55;3.58;;;11.10;99.90;;;;;;4240620;28;20047;-55
2023/10/23 06:52:28;;;;;;;20.70;3.28;;;11.00;99.90;;;;;;4263364;27;20047;-55
2023/10/23 06:54:31;;;;;;;15.20;3.38;;;11.00;99.90;;;;;;4258790;27;20043;-55
2023/10/23 06:56:33;;;;;;;15.68;3.53;;;11.00;99.90;;;;;;4247210;28;20050;-56
2023/10/23 06:58:35;;;;;;;15.90;3.33;;;11.10;99.90;;;;;;4253917;27;20069;-55
2023/10/23 07:00:37;;;;;;;14.80;3.60;;;11.00;99.90;;;;;;4257425;27;20125;-55
2023/10/23 07:02:39;;;;;;;17.83;3.30;;;11.00;99.90;;;;;;4262471;27;20115;-56
2023/10/23 07:04:42;;;;;;;18.10;3.88;;;11.00;99.90;;;;;;4255075;27;20057;-55
2023/10/23 07:06:44;;;;;;;11.27;3.15;;;11.00;99.90;;;;;;4267663;27;20466;-55
2023/10/23 07:08:47;;;;;;;16.45;3.70;;;11.10;99.90;;;;;;4244821;27;20092;-55
2023/10/23 07:10:49;;;;;;;17.67;4.15;;;11.10;99.90;;;;;;4259019;27;20496;-56
2023/10/23 07:12:55;;;;;;;15.25;3.40;;;11.00;99.90;;;;;;4267823;27;20082;-55
2023/10/23 07:15:01;;;;;;;15.95;3.53;;;11.00;99.90;;;;;;4263004;27;20133;-55
2023/10/23 07:17:04;;;;;;;15.85;3.33;;;11.10;99.90;;;;;;4252034;27;20043;-56
2023/10/23 07:19:06;;;;;;;17.38;3.65;;;11.20;99.90;;;;;;4263449;27;20062;-55
2023/10/23 07:21:08;;;;;;;14.82;4.07;;;11.30;99.90;;;;;;4259044;27;20445;-55
2023/10/23 07:23:10;;;;;;;19.33;4.07;;;11.30;99.90;;;;;;4254293;27;20050;-55
2023/10/23 07:25:14;;;;;;;20.55;4.07;;;11.30;99.90;;;;;;4263063;27;20042;-55
2023/10/23 07:27:16;;;;;;;14.35;3.50;;;11.30;99.90;;;;;;4267189;27;20479;-56
2023/10/23 07:29:18;;;;;;;15.05;3.83;;;11.30;99.90;;;;;;4262765;27;20062;-55
2023/10/23 07:31:21;;;;;;;16.40;3.38;;;11.30;99.90;;;;;;4266394;27;20042;-55
2023/10/23 07:33:23;;;;;;;10.75;2.97;;;11.30;99.90;;;;;;4267777;27;20049;-55
2023/10/23 07:35:25;;;;;;;11.02;3.17;;;11.30;99.90;;;;;;4256553;27;20460;-55
2023/10/23 07:37:27;;;;;;;20.08;3.70;;;11.30;99.90;;;;;;4266171;27;20131;-56
2023/10/23 07:39:29;;;;;;;24.70;4.03;;;11.40;99.90;;;;;;4261767;27;20039;-57
2023/10/23 07:41:35;;;;;;;20.17;3.67;;;11.40;99.90;;;;;;4260825;27;20047;-55
2023/10/23 07:43:38;;;;;;;13.98;4.03;;;11.50;99.90;;;;;;4250170;27;20043;-55
2023/10/23 07:45:41;;;;;;;14.70;4.20;;;11.50;99.90;;;;;;4253387;27;20047;-55
2023/10/23 07:47:43;;;;;;;26.67;4.57;;;11.50;99.90;;;;;;4264748;27;20047;-55
2023/10/23 07:49:45;;;;;;;21.73;3.85;;;11.60;99.90;;;;;;4265110;27;20038;-55
2023/10/23 07:51:48;;;;;;;13.88;3.47;;;11.60;99.90;;;;;;4267058;27;20479;-54
2023/10/23 07:53:50;;;;;;;20.52;3.65;;;11.60;99.90;;;;;;4266730;27;20050;-55
2023/10/23 07:55:52;;;;;;;8.55;3.28;;;11.60;99.90;;;;;;4238488;27;20400;-56
2023/10/23 07:57:55;;;;;;;17.52;3.65;;;11.60;99.90;;;;;;4259927;27;20121;-55
2023/10/23 07:59:57;;;;;;;20.08;3.55;;;11.60;99.90;;;;;;4243002;27;20115;-55
2023/10/23 08:02:00;;;;;;;14.25;3.55;;;11.60;99.90;;;;;;4259681;27;20143;-56
2023/10/23 08:04:03;;;;;;;15.07;3.40;;;11.70;99.90;;;;;;4252429;27;20047;-54
2023/10/23 08:06:09;;;;;;;22.65;3.72;;;11.80;99.90;;;;;;4256040;27;20435;-55
2023/10/23 08:08:11;;;;;;;15.18;3.70;;;11.70;99.90;;;;;;4264078;27;20038;-55
2023/10/23 08:10:13;;;;;;;16.48;3.95;;;11.80;99.90;;;;;;4265005;27;20099;-55
2023/10/23 08:12:16;;;;;;;22.35;4.63;;;11.80;99.90;;;;;;4254921;27;20046;-56
2023/10/23 08:14:19;;;;;;;12.35;2.95;;;11.80;99.90;;;;;;4266755;27;20057;-55
2023/10/23 08:16:21;;;;;;;16.00;4.35;;;11.80;99.90;;;;;;4259350;27;20535;-54
2023/10/23 08:18:24;;;;;;;13.35;4.50;;;11.80;99.90;;;;;;4262500;27;20096;-54
2023/10/23 08:20:40;;;;;;;21.67;5.07;;;11.80;99.90;;;;;;4263251;27;20085;-55
2023/10/23 08:22:42;;;;;;;19.63;4.57;;;11.80;99.90;;;;;;4261133;27;20131;-55
2023/10/23 08:24:45;;;;;;;9.85;3.63;;;11.80;99.90;;;;;;4266896;27;20043;-55
2023/10/23 08:26:47;;;;;;;11.90;3.60;;;11.80;99.90;;;;;;4266037;27;20484;-55
2023/10/23 08:28:50;;;;;;;14.02;3.65;;;11.70;99.90;;;;;;4253315;27;20488;-55
2023/10/23 08:30:56;;;;;;;18.38;3.60;;;11.80;99.90;;;;;;4253709;27;20039;-57
2023/10/23 08:32:58;;;;;;;15.88;2.60;;;11.90;99.90;;;;;;4264127;27;20079;-56
2023/10/23 08:35:01;;;;;;;11.45;3.47;;;11.90;99.90;;;;;;4250214;27;20047;-55
2023/10/23 08:37:03;;;;;;;12.63;3.25;;;11.90;99.90;;;;;;4256858;27;20076;-57
2023/10/23 08:39:06;;;;;;;12.45;2.90;;;11.90;99.90;;;;;;4254626;27;20076;-55
2023/10/23 08:41:10;;;;;;;11.68;3.13;;;12.00;99.90;;;;;;4250335;27;20066;-55
2023/10/23 08:43:12;;;;;;;21.52;3.88;;;12.00;99.90;;;;;;4260611;27;20055;-54
2023/10/23 08:45:16;;;;;;;20.27;3.33;;;12.10;99.90;;;;;;4248987;27;20047;-55
2023/10/23 08:47:19;;;;;;;21.80;3.30;;;12.20;99.90;;;;;;4255166;27;20054;-55
2023/10/23 08:49:22;;;;;;;17.70;3.55;;;12.20;99.90;;;;;;4254638;27;20134;-55
2023/10/23 08:51:26;;;;;;;22.85;4.03;;;12.20;99.90;;;;;;4261859;27;20081;-55
2023/10/23 08:53:32;;;;;;;25.77;4.25;;;12.30;99.90;;;;;;4254692;27;20385;-55
2023/10/23 08:55:36;;;;;;;23.77;3.55;;;12.30;99.90;;;;;;4266320;27;20129;-55
2023/10/23 08:57:42;;;;;;;12.90;3.10;;;12.40;99.90;;;;;;4259116;27;20043;-54
2023/10/23 08:59:46;;;;;;;9.85;2.97;;;12.30;99.90;;;;;;4260571;27;20043;-54
2023/10/23 09:01:48;;;;;;;16.15;3.00;;;12.40;99.90;;;;;;4262921;27;20039;-54
2023/10/23 09:03:54;;;;;;;26.92;4.63;;;12.40;99.90;;;;;;4263583;27;20411;-57
2023/10/23 09:06:18;;;;;;;17.52;3.78;;;12.40;99.90;;;;;;4231817;27;20054;-55
2023/10/23 09:08:20;;;;;;;26.88;4.68;;;12.40;99.90;;;;;;4256198;27;20043;-54
2023/10/23 09:10:26;;;;;;;27.92;4.47;;;12.50;99.90;;;;;;4262904;27;20042;-56
2023/10/23 09:12:30;;;;;;;37.88;5.63;;;12.50;99.90;;;;;;4262492;27;20043;-55
2023/10/23 09:14:35;;;;;;;16.48;3.28;;;12.50;99.90;;;;;;4260626;27;20472;-55
2023/10/23 09:16:38;;;;;;;10.13;3.10;;;12.50;99.90;;;;;;4249030;27;20127;-54
2023/10/23 09:18:55;;;;;;;16.15;3.28;;;12.50;99.90;;;;;;4259642;27;20164;-55
2023/10/23 09:20:58;;;;;;;14.18;3.90;;;12.50;99.90;;;;;;4249845;27;20449;-54
2023/10/23 09:23:01;;;;;;;10.02;2.75;;;12.50;99.90;;;;;;4250628;27;20057;-55
2023/10/23 09:25:07;;;;;;;16.60;2.90;;;12.60;99.90;;;;;;4264953;27;20043;-55
2023/10/23 09:27:09;;;;;;;10.20;2.78;;;12.70;99.90;;;;;;4262607;27;20178;-55
2023/10/23 09:29:11;;;;;;;16.10;3.22;;;12.70;99.90;;;;;;4261457;27;20078;-58
2023/10/23 09:31:14;;;;;;;24.73;3.72;;;12.70;99.90;;;;;;4255475;27;20113;-56
2023/10/23 09:33:16;;;;;;;27.70;3.90;;;12.70;99.90;;;;;;4261164;27;20039;-55
2023/10/23 09:35:19;;;;;;;10.10;3.70;;;12.80;99.90;;;;;;4259616;27;20276;-55
2023/10/23 09:37:24;;;;;;;14.00;2.92;;;12.80;99.90;;;;;;4248313;27;20118;-56
2023/10/23 09:39:26;;;;;;;23.40;3.40;;;12.80;99.90;;;;;;4258066;27;20063;-56
2023/10/23 09:41:30;;;;;;;17.15;3.35;;;12.80;99.90;;;;;;4250416;27;20059;-56
2023/10/23 09:43:33;;;;;;;11.13;3.08;;;12.80;99.90;;;;;;4249185;27;20122;-56
2023/10/23 09:45:36;;;;;;;20.85;3.83;;;12.80;99.90;;;;;;4259654;27;20126;-55
2023/10/23 09:47:39;;;;;;;11.60;3.50;;;12.80;99.90;;;;;;4248030;27;20071;-54
2023/10/23 09:49:41;;;;;;;15.60;3.25;;;12.80;99.90;;;;;;4256780;27;20492;-54
2023/10/23 09:51:49;;;;;;;9.10;2.78;;;12.80;99.90;;;;;;4264434;27;20084;-55
2023/10/23 09:53:58;;;;;;;12.15;3.60;;;12.90;99.90;;;;;;4261342;27;20050;-54
2023/10/23 09:56:06;;;;;;;19.52;3.50;;;12.90;99.90;;;;;;4253428;27;20118;-55
2023/10/23 09:58:13;;;;;;;10.75;3.28;;;13.00;99.90;;;;;;4265185;27;20042;-55
2023/10/23 10:00:29;;;;;;;12.25;3.40;;;12.90;99.90;;;;;;4253856;27;20486;-55
2023/10/23 10:02:35;;;;;;;9.88;2.28;;;12.90;99.90;;;;;;4259137;27;20050;-55
2023/10/23 10:05:04;;;;;;;11.93;2.78;;;12.90;99.90;;;;;;4260228;27;20108;-56
2023/10/23 10:07:11;;;;;;;13.32;2.83;;;13.00;99.90;;;;;;4260509;27;20087;-54
2023/10/23 10:09:37;;;;;;;7.40;2.20;;;13.00;99.90;;;;;;4248803;27;20048;-55
2023/10/23 10:11:45;;;;;;;13.68;2.72;;;13.00;99.90;;;;;;4255159;27;20078;-55
2023/10/23 10:14:15;;;;;;;10.50;2.42;;;12.90;99.90;;;;;;4261718;27;20047;-54
2023/10/23 10:16:22;;;;;;;15.38;3.00;;;12.90;99.90;;;;;;4254555;27;20043;-55
2023/10/23 10:18:29;;;;;;;9.95;2.70;;;13.10;99.90;;;;;;4261402;27;20039;-55
2023/10/23 10:20:33;;;;;;;8.63;2.75;;;13.10;99.90;;;;;;4256486;27;20035;-54
2023/10/23 10:22:38;;;;;;;13.57;2.45;;;13.20;99.90;;;;;;4240568;27;20059;-55
2023/10/23 10:24:42;;;;;;;;;;;13.20;99.90;;;;;;4261581;27;20053;-54
2023/10/23 10:26:45;;;;;;;10.50;3.20;;;13.20;99.90;;;;;;4264127;27;19919;-55
2023/10/23 10:28:52;;;;;;;6.72;2.53;;;13.10;99.90;;;;;;4264818;27;20042;-55
2023/10/23 10:30:57;;;;;;;13.13;2.85;;;13.20;99.90;;;;;;4258814;27;20111;-55
2023/10/23 10:33:00;;;;;;;14.13;2.50;;;13.20;99.90;;;;;;4263765;27;20053;-56
2023/10/23 10:35:27;;;;;;;7.25;2.60;;;13.20;99.90;;;;;;4262336;27;20066;-55